x

Folly Island, Sc (fbis1) Weather Station

6:00am - Mon 25th May 2015 All times are EDT. -4 hours from GMT.

  • Wind
    14mph, 15mph gusts
  • Air Temp 74°f
  • Sea Pressure 1025.4mb
  • Folly Island, Sc
  • Folly Island, Sc

More Historic Weather Station data

Upgrade to MSW Pro to gain access to the past 30 days of data for over 8000 Wavebouys and Weather Stations around the globe.

Join Pro

Comparision Forecast

View Surf forecast
   
Mon 05/25 6:00am 14 15 mph 1025.4mb 74f
5:00am 14 16 mph 1025.2mb 74f
4:00am 15 17 mph 1025.2mb 74f
3:00am 17 18 mph 1025.4mb 74f
2:00am 17 18 mph 1025.6mb 74f
1:00am 18 20 mph 1026.1mb 74f
12:00am 18 21 mph 1026.3mb 74f
Sun 05/24 11:00pm 18 21 mph 1026.5mb 74f
10:00pm 17 20 mph 1026.7mb 75f
9:00pm 21 22 mph 1026.4mb 75f
8:00pm 18 22 mph 1026.4mb 75f
7:00pm 18 21 mph 1026.2mb 75f
6:00pm 16 20 mph 1026.2mb 76f
5:00pm 16 18 mph 1026.4mb 76f
4:00pm 15 17 mph 1027mb 76f
3:00pm 16 18 mph 1027.5mb 76f
2:00pm 16 18 mph 1028mb 76f
1:00pm 16 20 mph 1028.1mb 76f
12:00pm 16 18 mph 1028.6mb 76f
11:00am 16 17 mph 1028.6mb 76f
10:00am 16 17 mph 1028.2mb 75f
9:00am 15 17 mph 1028.1mb 74f
8:00am 15 17 mph 1028mb 74f
7:00am 15 17 mph 1027.6mb 74f
6:00am 17 18 mph 1027.1mb 74f
5:00am 15 17 mph 1027mb 74f
4:00am 15 17 mph 1026.5mb 74f
3:00am 15 20 mph 1026.5mb 74f
2:00am 17 20 mph 1026.9mb 74f
1:00am 17 20 mph 1027.5mb 74f
12:00am 17 20 mph 1027.7mb 74f
Sat 05/23 11:00pm 18 20 mph 1027.8mb 74f
10:00pm 18 20 mph 1027.5mb 74f
9:00pm 17 20 mph 1027.2mb 74f
8:00pm 18 21 mph 1027.4mb 75f
7:00pm 17 20 mph 1027.5mb 74f
6:00pm 18 20 mph 1027.5mb 74f
5:00pm 18 21 mph 1027.7mb 74f
4:00pm 18 21 mph 1028.2mb 74f
3:00pm 16 18 mph 1028.5mb 73f
2:00pm 16 20 mph 1028.7mb 74f
1:00pm 20 22 mph 1029mb 73f
12:00pm 17 20 mph 1028.9mb 74f
11:00am 16 18 mph 1028.6mb 73f
10:00am 18 21 mph 1028.3mb 73f
9:00am 16 18 mph 1027.9mb 71f
8:00am 18 22 mph 1027.2mb 72f
7:00am 16 18 mph 1026.5mb 71f
6:00am 13 16 mph 1025.6mb 70f
5:00am 15 16 mph 1025.1mb 71f
4:00am 15 17 mph 1024.4mb 71f
3:00am 10 14 mph 1024.3mb 71f
2:00am 13 15 mph 1024.4mb 72f
1:00am 10 13 mph 1024.7mb 72f
12:00am 10 11 mph 1024.8mb 72f
Fri 05/22 11:00pm 9 11 mph 1024.6mb 71f
10:00pm 9 13 mph 1023.8mb 71f
9:00pm 8 10 mph 1023.2mb 71f
8:00pm 9 10 mph 1022.7mb 71f
7:00pm 10 13 mph 1022.1mb 71f
6:00pm 13 14 mph 1022mb 71f
5:00pm 14 16 mph 1021.9mb 72f
4:00pm 13 15 mph 1022.1mb 71f
3:00pm 14 17 mph 1021.9mb 72f
2:00pm 15 18 mph 1021.9mb 71f
1:00pm 16 20 mph 1021.6mb 72f
12:00pm 16 20 mph 1021.6mb 70f
11:00am 16 20 mph 1021.1mb 69f
10:00am 21 25 mph 1020.2mb 68f
9:00am 21 24 mph 1019.8mb 68f
8:00am 17 22 mph 1018.9mb 68f
7:00am 16 18 mph 1018mb 69f
6:00am 26 30 mph 1016.4mb 71f
5:00am 5 6 mph 1015.3mb 70f
4:00am 6 8 mph 1014.8mb 70f
3:00am 5 6 mph 1013.9mb 72f
2:00am 5 7 mph 1013.8mb 75f
1:00am 6 9 mph 1013.5mb 77f
12:00am 7 9 mph 1013mb 78f
Thu 05/21 11:00pm 3 7 mph 1012.6mb 79f
10:00pm 7 8 mph 1011.9mb 79f
9:00pm 6 7 mph 1011.2mb 81f
8:00pm 5 7 mph 1010.5mb 85f
7:00pm 9 15 mph 1009.6mb 88f
6:00pm 10 17 mph 1009.4mb 89f
5:00pm 10 18 mph 1009.5mb 90f
4:00pm 11 17 mph 1009.7mb 89f
3:00pm 10 15 mph 1009.9mb 87f
2:00pm 18 21 mph 1010.3mb 80f
1:00pm 18 21 mph 1010.5mb 79f
12:00pm 8 11 mph 1011.1mb 84f